x

Kaunakakai, Molokai Airport (91186) Weather Station

6:54am - Fri 6th Mar 2015 All times are HST. -10 hours from GMT.

  • Wind
    17mph, 23mph gusts
  • Air Temp 64°f
  • Sea Pressure 1013.9mb
  • Kaunakakai, Molokai Airport
  • Kaunakakai, Molokai Airport

More Historic Weather Station data

Upgrade to MSW Pro to gain access to the past 30 days of data for over 8000 Wavebouys and Weather Stations around the globe.

Join Pro

Comparision Forecast

View Surf forecast
   
Fri 03/06 6:54am 17 23 mph 1013.9mb 64f
5:54am 17 25 mph 1013.2mb 63f
5:27am 13 24 mph 1013.2mb 63f
4:54am 16 27 mph 1013.2mb 63f
3:54am 13 23 mph 1012.9mb 63f
2:54am 13 20 mph 1012.9mb 63f
2:50am 12 21 mph 1013.2mb 63f
2:34am 17 24 mph 1013.2mb 63f
1:54am 13 21 mph 1013.5mb 63f
1:06am 15 27 mph 1013.9mb 63f
12:54am 16 24 mph 1013.9mb 64f
Thu 03/05 11:54pm 13 21 mph 1014.6mb 66f
10:54pm 15 25 mph 1014.2mb 66f
10:47pm 15 25 mph 1014.2mb 66f
10:15pm 15 25 mph 1014.2mb 64f
9:54pm 14 23 mph 1014.6mb 64f
9:11pm 17 28 mph 1014.2mb 64f
8:54pm 14 25 mph 1014.2mb 64f
8:52pm 16 30 mph 1013.9mb 64f
8:06pm 18 24 mph 1013.9mb 64f
7:54pm 12 22 mph 1013.5mb 64f
7:49pm 14 24 mph 1013.5mb 64f
6:54pm 15 24 mph 1013.5mb 64f
6:30pm 7 18 mph 1013.2mb 66f
5:54pm 13 20 mph 1012.5mb 66f
5:29pm 15 27 mph 1012.5mb 66f
4:54pm 15 24 mph 1012.5mb 72f
3:54pm 13 21 mph 1012.2mb 70f
2:54pm 15 27 mph 1012.9mb 72f
1:54pm 13 22 mph 1013.9mb 72f
12:54pm 13 23 mph 1014.6mb 70f
11:54am 8 21 mph 1015.9mb 70f
11:36am 15 23 mph 1015.9mb 70f
11:18am 15 21 mph 1015.9mb 68f
10:54am 10 17 mph 1016.6mb 66f
9:54am 12 20 mph 1016.6mb 66f
8:54am 13 21 mph 1016.3mb 66f
8:03am 9 20 mph 1015.9mb 68f
7:54am 13 21 mph 1015.6mb 68f
7:07am 17 24 mph 1015.2mb 68f
6:54am 14 25 mph 1015.2mb 68f
5:54am 17 23 mph 1014.6mb 66f
4:54am 15
mph
1014.2mb 66f
4:45am 14 21 mph 1014.2mb 68f
4:20am 12 21 mph 1014.2mb 66f
3:54am 10
mph
1014.2mb 66f
3:36am 13 22 mph 1014.2mb 66f
2:54am 13 20 mph 1014.6mb 68f
2:27am 12
mph
1014.9mb 70f
2:20am 10
mph
1014.9mb 70f
1:54am 10 16 mph 1015.2mb 68f
12:54am 9 17 mph 1015.9mb 70f
12:32am 9
mph
1016.3mb 70f
Wed 03/04 11:54pm 10 17 mph 1016.3mb 70f
11:51pm 9 17 mph 1016.3mb 70f
11:20pm 9 16 mph 1016.3mb 68f
10:54pm 10
mph
1016.6mb 68f
10:31pm 12 21 mph 1016.9mb 66f
9:54pm 16 22 mph 1016.9mb 68f
9:47pm 16 21 mph 1016.9mb 68f
8:54pm 13
mph
1015.9mb 68f
7:54pm 5
mph
1014.2mb 66f
7:01pm 9
mph
1014.2mb 66f
6:54pm 8
mph
1014.6mb 66f
5:54pm 6
mph
1015.2mb 66f
4:54pm 7
mph
1015.6mb 67f
3:54pm 10
mph
1015.2mb 68f
2:54pm 7
mph
1015.2mb 66f
1:54pm 13 22 mph 1013.9mb 72f
1:29pm 7
mph
1015.9mb 66f
1:10pm 6
mph
1016.6mb 66f
1:01pm 7
mph
1016.3mb 66f
12:54pm 7
mph
1016.6mb 67f
12:24pm 8
mph
1017.6mb 66f
12:03pm 5
mph
1018mb 66f
11:56am 9
mph
1018mb 66f
11:54am 8 18 mph 1018mb 67f
11:08am 15 21 mph 1017.6mb 66f
11:01am 12
mph
1017.6mb 66f
10:54am 12 16 mph 1017.6mb 66f
10:22am 9 20 mph 1017.6mb 68f
10:01am 10 18 mph 1017.3mb 66f
9:54am 13 20 mph 1017.3mb 68f
9:09am 12 22 mph 1017.6mb 68f
8:54am 9 18 mph 1017.3mb 68f
8:24am 12 20 mph 1016.9mb 66f
7:54am 8 18 mph 1016.6mb 68f
6:54am 12 21 mph 1015.9mb 66f
6:47am 10 22 mph 1015.6mb 68f
6:34am 14 23 mph 1015.2mb 68f
6:29am 15 23 mph 1014.9mb 66f
5:54am 15 24 mph 1014.2mb 67f
5:06am 17 23 mph 1014.6mb 66f
4:54am 15 22 mph 1014.9mb 66f
3:54am 10
mph
1014.9mb 68f
2:54am 13 21 mph 1015.6mb 68f
2:10am 9
mph
1016.3mb 68f
1:54am 10 21 mph 1016.3mb 68f
1:35am 13 23 mph 1016.3mb 68f
1:23am 15 23 mph 1016.3mb 68f
12:54am 9 17 mph 1017.3mb 70f
12:31am 10 21 mph 1017.6mb 70f
12:01am 13 20 mph 1017.6mb 70f
Tue 03/03 11:54pm 9 18 mph 1017.3mb 70f
11:30pm 10 17 mph 1017.6mb 70f
11:10pm 7 20 mph 1017.3mb 72f
10:54pm 17 27 mph 1016.9mb 72f
9:54pm 17 24 mph 1017.6mb 72f
8:54pm 16 25 mph 1016.6mb 72f
8:04pm 12 25 mph 1016.3mb 72f
7:54pm 15 27 mph 1015.9mb 70f
7:26pm 13 23 mph 1015.9mb 70f
7:01pm 15 24 mph 1015.9mb 70f
6:54pm 16 27 mph 1015.6mb 70f
5:54pm 14 22 mph 1014.9mb 73f
4:54pm 12 27 mph 1014.2mb 73f
4:23pm 12 24 mph 1014.6mb 73f
3:54pm 13 24 mph 1014.9mb 75f
2:54pm 13 23 mph 1014.9mb 75f
1:54pm 13 27 mph 1015.6mb 75f
12:54pm 17 31 mph 1016.6mb 77f
11:54am 15 24 mph 1017.3mb 77f
10:54am 12 21 mph 1018.3mb 77f
9:54am 13 22 mph 1018.3mb 77f
8:54am 14 20 mph 1018mb 73f
7:54am 13 21 mph 1017.3mb 73f
6:54am 12 23 mph 1016.9mb 72f
6:02am 17 25 mph 1016.3mb 70f
5:54am 10 20 mph 1016.3mb 70f
4:54am 10 21 mph 1016.6mb 70f
4:27am 9 20 mph 1016.6mb 72f
4:17am 13 20 mph 1016.6mb 72f
3:54am 12 21 mph 1016.6mb 72f
3:25am 9 25 mph 1016.6mb 72f
3:17am 16 25 mph 1016.6mb 72f
2:54am 10 23 mph 1016.6mb 72f
2:20am 15 23 mph 1016.6mb 72f
1:54am 10 22 mph 1016.9mb 72f
1:25am 14 20 mph 1017.3mb 72f
1:18am 12 22 mph 1017.3mb 72f
12:54am 9 23 mph 1017.6mb 70f
12:27am 12 18 mph 1017.3mb 70f
12:17am 13 23 mph 1017.3mb 70f
Mon 03/02 11:54pm 12 21 mph 1017.6mb 70f
11:50pm 12 21 mph 1017.6mb 70f
11:22pm 13 21 mph 1018mb 70f
10:54pm 10
mph
1018.3mb 70f
10:26pm 13 18 mph 1018.6mb 70f
9:54pm 12 17 mph 1018.6mb 70f
9:23pm 9
mph
1018.6mb 70f
8:54pm 9
mph
1018.3mb 72f
7:54pm 7
mph
1017.6mb 73f
7:08pm 7
mph
1016.9mb 73f
6:54pm 9
mph
1016.6mb 73f
5:54pm 12 21 mph 1015.6mb 73f